createdAt,value
2017-10-26T00:01:09.742Z,68.82
2017-10-26T00:03:36.170Z,68.93
2017-10-26T00:06:02.582Z,69.34
2017-10-26T00:08:28.958Z,68.87
2017-10-26T00:10:55.401Z,68.68
2017-10-26T00:13:22.309Z,69.17
2017-10-26T00:15:48.945Z,69.23
2017-10-26T00:18:15.306Z,69.35
2017-10-26T00:20:41.709Z,69.23
2017-10-26T00:23:08.070Z,68.68
2017-10-26T00:25:34.504Z,68.32
2017-10-26T00:28:00.823Z,68.72
2017-10-26T00:30:27.353Z,68.92
2017-10-26T00:32:53.836Z,69.21
2017-10-26T00:35:20.223Z,69.41
2017-10-26T00:37:46.711Z,69.72
2017-10-26T00:40:13.142Z,69.87
2017-10-26T00:42:39.623Z,70.02
2017-10-26T00:45:07.153Z,70.88
2017-10-26T00:47:33.450Z,71.88
2017-10-26T00:49:59.841Z,72.27
2017-10-26T00:52:26.282Z,72.90
2017-10-26T00:54:52.659Z,73.17
2017-10-26T00:57:19.042Z,72.97
2017-10-26T00:59:45.479Z,73.05
2017-10-26T01:02:12.138Z,72.66
2017-10-26T01:04:38.478Z,72.66
2017-10-26T01:07:05.692Z,72.81
2017-10-26T01:09:32.088Z,73.09
2017-10-26T01:11:58.446Z,73.00
2017-10-26T01:14:24.823Z,73.61
2017-10-26T01:16:52.021Z,73.21
2017-10-26T01:19:18.491Z,73.30
2017-10-26T01:21:44.925Z,72.88
2017-10-26T01:24:11.373Z,73.19
2017-10-26T01:26:38.584Z,72.88
2017-10-26T01:29:04.892Z,72.63
2017-10-26T01:31:31.253Z,72.69
2017-10-26T01:33:57.638Z,72.52
2017-10-26T01:36:24.089Z,71.82
2017-10-26T01:38:50.554Z,71.48
2017-10-26T01:41:16.995Z,71.49
2017-10-26T01:43:43.362Z,71.49
2017-10-26T01:46:09.764Z,70.96
2017-10-26T01:48:36.081Z,70.98
2017-10-26T01:51:02.500Z,71.31
2017-10-26T01:53:28.991Z,71.96
2017-10-26T01:55:56.141Z,73.01
2017-10-26T01:58:23.324Z,73.47
2017-10-26T02:00:49.728Z,73.82
2017-10-26T02:03:16.096Z,73.99
2017-10-26T02:05:42.525Z,74.38
2017-10-26T02:08:08.918Z,74.55
2017-10-26T02:10:35.235Z,74.31
2017-10-26T02:13:01.695Z,74.27
2017-10-26T02:15:28.748Z,74.22
2017-10-26T02:17:55.135Z,74.18
2017-10-26T02:20:21.482Z,74.32
2017-10-26T02:22:47.910Z,74.35
2017-10-26T02:25:14.398Z,74.28
2017-10-26T02:27:40.733Z,74.50
2017-10-26T02:30:25.936Z,74.69
2017-10-26T02:32:52.300Z,74.44
2017-10-26T02:35:18.696Z,74.28
2017-10-26T02:37:45.140Z,74.15
2017-10-26T02:40:11.503Z,74.03
2017-10-26T02:42:38.686Z,74.37
2017-10-26T02:45:05.058Z,74.60
2017-10-26T02:47:31.456Z,74.89
2017-10-26T02:49:57.902Z,75.07
2017-10-26T02:52:24.356Z,74.87
2017-10-26T02:54:50.780Z,75.27
2017-10-26T02:57:17.221Z,75.19
2017-10-26T02:59:43.590Z,74.98
2017-10-26T03:02:11.150Z,75.01
2017-10-26T03:04:38.355Z,75.09
2017-10-26T03:07:04.932Z,74.82
2017-10-26T03:09:31.302Z,74.44
2017-10-26T03:11:57.645Z,74.13
2017-10-26T03:14:24.031Z,74.07
2017-10-26T03:16:51.150Z,74.39
2017-10-26T03:19:17.596Z,74.29
2017-10-26T03:21:43.994Z,74.21
2017-10-26T03:24:10.522Z,73.93
2017-10-26T03:26:36.915Z,74.21
2017-10-26T03:29:03.340Z,74.08
2017-10-26T03:31:29.850Z,73.70
2017-10-26T03:33:56.510Z,73.35
2017-10-26T03:36:23.056Z,73.48
2017-10-26T03:38:50.580Z,73.42
2017-10-26T03:41:17.044Z,73.36
2017-10-26T03:43:43.562Z,73.22
2017-10-26T03:46:10.173Z,73.68
2017-10-26T03:48:36.620Z,74.07
2017-10-26T03:51:03.067Z,74.58
2017-10-26T03:53:29.507Z,74.20
2017-10-26T03:55:55.867Z,74.27
2017-10-26T03:58:22.982Z,74.08
2017-10-26T04:00:49.551Z,74.43
2017-10-26T04:03:16.736Z,74.84
2017-10-26T04:05:43.208Z,74.35
2017-10-26T04:08:09.649Z,74.25
2017-10-26T04:10:36.034Z,74.60
2017-10-26T04:13:02.401Z,74.87
2017-10-26T04:15:28.782Z,74.03
2017-10-26T04:17:55.267Z,73.97
2017-10-26T04:20:22.058Z,74.13
2017-10-26T04:22:48.601Z,73.96
2017-10-26T04:25:15.450Z,73.53
2017-10-26T04:27:41.876Z,73.47
2017-10-26T04:30:08.358Z,73.73
2017-10-26T04:32:34.795Z,74.22
2017-10-26T04:35:01.263Z,74.05
2017-10-26T04:37:28.449Z,73.30
2017-10-26T04:39:55.003Z,73.02
2017-10-26T04:42:21.644Z,72.37
2017-10-26T04:44:47.985Z,72.49
2017-10-26T04:47:14.423Z,72.81
2017-10-26T04:49:40.792Z,73.17
2017-10-26T04:52:07.920Z,73.31
2017-10-26T04:54:34.369Z,73.37
2017-10-26T04:57:08.375Z,72.75
2017-10-26T04:59:35.526Z,72.80
2017-10-26T05:02:02.640Z,72.46
2017-10-26T05:04:28.999Z,72.89
2017-10-26T05:06:55.452Z,73.44
2017-10-26T05:09:22.614Z,73.53
2017-10-26T05:11:49.694Z,72.98
2017-10-26T05:14:16.094Z,73.65
2017-10-26T05:16:42.407Z,73.78
2017-10-26T05:19:09.521Z,72.95
2017-10-26T05:21:36.660Z,73.10
2017-10-26T05:24:03.078Z,73.50
2017-10-26T05:26:29.573Z,72.53
2017-10-26T05:28:55.970Z,72.53
2017-10-26T05:31:22.384Z,72.75
2017-10-26T05:33:48.889Z,72.65
2017-10-26T05:36:15.296Z,73.30
2017-10-26T05:38:41.787Z,73.31
2017-10-26T05:41:08.309Z,73.50
2017-10-26T05:43:34.724Z,73.13
2017-10-26T05:46:01.096Z,73.62
2017-10-26T05:48:27.521Z,74.05
2017-10-26T05:50:53.924Z,73.68
2017-10-26T05:53:20.285Z,73.54
2017-10-26T05:55:46.681Z,72.99
2017-10-26T05:58:13.837Z,72.93
2017-10-26T06:00:40.986Z,72.45
2017-10-26T06:03:07.367Z,72.51
2017-10-26T06:05:33.752Z,72.61
2017-10-26T06:08:00.934Z,72.97
2017-10-26T06:10:27.356Z,72.65
2017-10-26T06:12:53.782Z,72.39
2017-10-26T06:15:20.114Z,71.88
2017-10-26T06:17:46.747Z,72.11
2017-10-26T06:20:13.290Z,71.78
2017-10-26T06:22:39.643Z,71.57
2017-10-26T06:25:06.139Z,71.33
2017-10-26T06:27:32.638Z,70.66
2017-10-26T06:29:59.037Z,70.84
2017-10-26T06:32:25.302Z,71.43
2017-10-26T06:34:51.690Z,71.76
2017-10-26T06:37:18.045Z,71.40
2017-10-26T06:39:44.557Z,71.69
2017-10-26T06:42:11.058Z,71.22
2017-10-26T06:44:37.494Z,70.97
2017-10-26T06:47:03.825Z,71.59
2017-10-26T06:49:30.195Z,71.47
2017-10-26T06:51:56.607Z,71.26
2017-10-26T06:54:23.781Z,71.36
2017-10-26T06:56:50.225Z,71.05
2017-10-26T06:59:16.664Z,70.91
2017-10-26T07:01:43.114Z,70.27
2017-10-26T07:04:09.543Z,69.97
2017-10-26T07:06:35.978Z,69.28
2017-10-26T07:09:02.389Z,67.93
2017-10-26T07:11:28.795Z,69.13
2017-10-26T07:13:55.882Z,70.08
2017-10-26T07:16:22.265Z,69.96
2017-10-26T07:18:48.680Z,69.73
2017-10-26T07:21:15.077Z,68.82
2017-10-26T07:23:41.449Z,69.18
2017-10-26T07:26:08.862Z,68.46
2017-10-26T07:28:35.195Z,68.70
2017-10-26T07:31:01.566Z,69.19
2017-10-26T07:33:27.908Z,69.05
2017-10-26T07:35:55.130Z,68.49
2017-10-26T07:38:21.714Z,68.29
2017-10-26T07:40:48.228Z,69.57
2017-10-26T07:43:15.337Z,69.24
2017-10-26T07:45:48.770Z,69.69
2017-10-26T07:48:15.090Z,69.28
2017-10-26T07:50:41.530Z,68.01
2017-10-26T07:53:07.916Z,66.57
2017-10-26T07:55:34.406Z,66.42
2017-10-26T07:58:01.177Z,66.82
2017-10-26T08:00:27.961Z,67.17
2017-10-26T08:02:54.419Z,66.56
2017-10-26T08:05:21.419Z,65.73
2017-10-26T08:07:48.033Z,65.47
2017-10-26T08:10:15.249Z,63.87
2017-10-26T08:12:41.792Z,62.70
2017-10-26T08:15:08.304Z,63.10
2017-10-26T08:17:34.589Z,61.97
2017-10-26T08:20:01.669Z,62.00
2017-10-26T08:22:28.070Z,62.39
2017-10-26T08:24:55.143Z,62.58
2017-10-26T08:27:21.725Z,63.02
2017-10-26T08:29:48.128Z,62.68
2017-10-26T08:32:14.536Z,62.03
2017-10-26T08:34:40.891Z,63.70
2017-10-26T08:37:07.281Z,64.00
2017-10-26T08:39:34.414Z,64.62
2017-10-26T08:42:00.864Z,63.53
2017-10-26T08:44:28.146Z,62.48
2017-10-26T08:46:54.438Z,62.35
2017-10-26T08:49:20.724Z,60.99
2017-10-26T08:51:47.278Z,59.91
2017-10-26T08:54:13.674Z,60.37
2017-10-26T08:56:40.021Z,60.94
2017-10-26T08:59:06.440Z,60.41
2017-10-26T09:01:32.736Z,59.17
2017-10-26T09:03:59.995Z,59.07
2017-10-26T09:06:27.236Z,60.67
2017-10-26T09:08:54.367Z,61.87
2017-10-26T09:11:21.111Z,61.58
2017-10-26T09:13:47.741Z,60.63
2017-10-26T09:16:14.072Z,58.69
2017-10-26T09:18:40.519Z,57.91
2017-10-26T09:21:07.024Z,57.76
2017-10-26T09:23:33.677Z,56.96
2017-10-26T09:26:00.023Z,58.13
2017-10-26T09:28:26.421Z,56.49
2017-10-26T09:30:52.842Z,54.79
2017-10-26T09:33:25.353Z,53.88
2017-10-26T09:35:51.816Z,55.64
2017-10-26T09:38:18.964Z,57.38
2017-10-26T09:40:45.389Z,57.71
2017-10-26T09:43:11.828Z,58.48
2017-10-26T09:45:38.158Z,58.75
2017-10-26T09:48:04.785Z,57.57
2017-10-26T09:50:31.270Z,58.00
2017-10-26T09:52:57.607Z,57.44
2017-10-26T09:55:24.089Z,56.96
2017-10-26T09:57:50.421Z,56.95
2017-10-26T10:00:16.810Z,56.91
2017-10-26T10:02:43.104Z,57.31
2017-10-26T10:05:10.562Z,55.85
2017-10-26T10:07:37.816Z,55.47
2017-10-26T10:10:04.247Z,55.12
2017-10-26T10:12:31.384Z,55.10
2017-10-26T10:14:57.731Z,53.41
2017-10-26T10:17:24.891Z,51.20
2017-10-26T10:19:51.278Z,49.06
2017-10-26T10:22:17.715Z,48.65
2017-10-26T10:24:44.043Z,50.22
2017-10-26T10:27:10.534Z,52.32
2017-10-26T10:29:36.934Z,52.21
2017-10-26T10:32:03.374Z,51.94
2017-10-26T10:34:30.500Z,53.01
2017-10-26T10:36:57.037Z,51.95
2017-10-26T10:39:23.464Z,50.05
2017-10-26T10:41:49.833Z,49.48
2017-10-26T10:44:16.227Z,46.91
2017-10-26T10:46:42.549Z,50.79
2017-10-26T10:49:08.887Z,51.22
2017-10-26T10:51:35.258Z,49.87
2017-10-26T10:54:02.407Z,48.17
2017-10-26T10:56:29.526Z,50.26
2017-10-26T11:01:52.766Z,51.22
2017-10-26T11:04:19.138Z,50.53
2017-10-26T11:06:45.599Z,50.85
2017-10-26T11:09:12.727Z,50.72
2017-10-26T11:11:39.076Z,53.60
2017-10-26T11:14:06.225Z,52.23
2017-10-26T11:16:33.391Z,51.19
2017-10-26T11:19:00.508Z,50.08
2017-10-26T11:21:26.845Z,50.46
2017-10-26T11:23:53.172Z,52.24
2017-10-26T11:26:19.601Z,52.01
2017-10-26T11:28:46.106Z,50.03
2017-10-26T11:31:12.467Z,50.13
2017-10-26T11:33:38.809Z,49.62
2017-10-26T11:36:05.161Z,48.65
2017-10-26T11:38:32.488Z,48.92
2017-10-26T11:40:58.856Z,47.74
2017-10-26T11:43:25.155Z,46.47
2017-10-26T11:45:51.550Z,45.68
2017-10-26T11:48:17.961Z,42.63
2017-10-26T11:50:44.361Z,44.22
2017-10-26T11:53:10.892Z,40.52
2017-10-26T11:55:37.264Z,37.31
2017-10-26T11:58:04.505Z,36.49
2017-10-26T12:00:31.012Z,36.26
2017-10-26T12:02:57.340Z,33.91
2017-10-26T12:05:23.890Z,33.49
2017-10-26T12:07:50.349Z,37.28
2017-10-26T12:10:17.518Z,37.37
2017-10-26T12:12:43.923Z,38.59
2017-10-26T12:15:11.112Z,40.91
2017-10-26T12:17:37.477Z,41.12
2017-10-26T12:20:03.989Z,39.93
2017-10-26T12:22:30.366Z,40.10
2017-10-26T12:24:57.524Z,43.10
2017-10-26T12:27:23.868Z,41.06
2017-10-26T12:29:50.230Z,41.51
2017-10-26T12:32:16.620Z,42.04
2017-10-26T12:34:42.994Z,43.29
2017-10-26T12:37:09.379Z,44.90
2017-10-26T12:39:36.542Z,43.93
2017-10-26T12:42:03.216Z,44.44
2017-10-26T12:44:29.606Z,45.56
2017-10-26T12:46:56.750Z,44.30
2017-10-26T12:49:24.042Z,42.19
2017-10-26T12:51:50.485Z,40.75
2017-10-26T12:54:16.895Z,40.44
2017-10-26T12:56:43.372Z,40.48
2017-10-26T12:59:09.934Z,41.56
2017-10-26T13:01:36.323Z,42.29
2017-10-26T13:04:02.741Z,43.41
2017-10-26T13:06:29.081Z,45.51
2017-10-26T13:08:55.458Z,46.26
2017-10-26T13:11:21.877Z,46.99
2017-10-26T13:13:49.709Z,46.51
2017-10-26T13:16:16.102Z,47.59
2017-10-26T13:18:43.545Z,47.32
2017-10-26T13:21:09.924Z,47.60
2017-10-26T13:23:36.502Z,47.26
2017-10-26T13:26:02.852Z,47.67
2017-10-26T13:28:29.285Z,48.00
2017-10-26T13:30:55.700Z,47.99
2017-10-26T13:33:22.144Z,46.39
2017-10-26T13:35:49.269Z,45.86
2017-10-26T13:38:15.664Z,45.79
2017-10-26T13:40:42.225Z,45.70
2017-10-26T13:43:08.669Z,47.86
2017-10-26T13:45:35.072Z,48.38
2017-10-26T13:48:01.511Z,48.03
2017-10-26T13:50:27.920Z,47.52
2017-10-26T13:52:55.033Z,47.10
2017-10-26T13:55:21.472Z,46.78
2017-10-26T13:57:47.852Z,46.57
2017-10-26T14:00:14.287Z,46.98
2017-10-26T14:02:40.868Z,46.38
2017-10-26T14:05:07.300Z,46.58
2017-10-26T14:07:33.734Z,47.22
2017-10-26T14:10:00.221Z,47.25
2017-10-26T14:12:26.604Z,46.72
2017-10-26T14:14:52.983Z,46.37
2017-10-26T14:17:19.358Z,45.68
2017-10-26T14:19:45.758Z,45.43
2017-10-26T14:22:12.301Z,46.84
2017-10-26T14:24:38.787Z,45.65
2017-10-26T14:27:05.258Z,47.57
2017-10-26T14:29:31.703Z,47.13
2017-10-26T14:31:58.096Z,47.09
2017-10-26T14:34:24.549Z,47.34
2017-10-26T14:36:51.003Z,48.63
2017-10-26T14:39:17.397Z,48.87
2017-10-26T14:41:43.782Z,49.19
2017-10-26T14:44:10.337Z,48.87
2017-10-26T14:46:36.750Z,49.73
2017-10-26T14:49:03.175Z,50.42
2017-10-26T14:51:30.016Z,51.46
2017-10-26T14:53:56.838Z,50.73
2017-10-26T14:56:23.492Z,49.96
2017-10-26T14:58:50.158Z,51.40
2017-10-26T15:01:17.009Z,52.16
2017-10-26T15:03:43.598Z,52.66
2017-10-26T15:06:11.212Z,53.10
2017-10-26T15:08:38.552Z,53.56
2017-10-26T15:11:04.995Z,53.50
2017-10-26T15:13:31.635Z,53.46
2017-10-26T15:15:58.334Z,54.33
2017-10-26T15:18:25.013Z,54.68
2017-10-26T15:20:51.571Z,54.66
2017-10-26T15:23:18.799Z,54.21
2017-10-26T15:25:45.191Z,54.65
2017-10-26T15:28:12.411Z,55.24
2017-10-26T15:30:39.753Z,55.68
2017-10-26T15:33:06.220Z,56.15
2017-10-26T15:35:33.538Z,56.47
2017-10-26T15:37:59.879Z,57.29
2017-10-26T15:40:27.095Z,58.17
2017-10-26T15:42:53.538Z,58.25
2017-10-26T15:45:20.211Z,58.70
2017-10-26T15:47:46.752Z,59.33
2017-10-26T15:50:13.293Z,59.33
2017-10-26T15:52:40.496Z,59.85
2017-10-26T15:55:07.148Z,60.57
2017-10-26T15:57:33.658Z,61.05
2017-10-26T16:00:00.117Z,61.48
2017-10-26T16:02:26.551Z,61.50
2017-10-26T16:04:52.957Z,62.33
2017-10-26T16:07:19.390Z,62.64
2017-10-26T16:09:45.923Z,63.25
2017-10-26T16:12:12.441Z,63.73
2017-10-26T16:14:38.876Z,64.21
2017-10-26T16:17:05.971Z,64.81
2017-10-26T16:19:33.480Z,64.84
2017-10-26T16:21:59.924Z,65.10
2017-10-26T16:24:26.384Z,65.06
2017-10-26T16:26:52.871Z,65.42
2017-10-26T16:29:20.157Z,65.90
2017-10-26T16:31:46.818Z,65.46
2017-10-26T16:34:13.169Z,65.66
2017-10-26T16:36:39.634Z,65.49
2017-10-26T16:39:06.716Z,65.56
2017-10-26T16:41:33.076Z,65.42
2017-10-26T16:43:59.448Z,65.32
2017-10-26T16:46:26.600Z,65.61
2017-10-26T16:48:53.789Z,65.28
2017-10-26T16:51:20.187Z,65.08
2017-10-26T16:53:48.246Z,65.13
2017-10-26T16:56:14.929Z,65.22
2017-10-26T16:58:41.456Z,65.07
2017-10-26T17:01:07.913Z,64.68
2017-10-26T17:03:34.341Z,64.43
2017-10-26T17:06:00.723Z,64.59
2017-10-26T17:08:27.091Z,64.71
2017-10-26T17:10:53.539Z,64.64
2017-10-26T17:13:19.917Z,64.75
2017-10-26T17:15:46.377Z,65.00
2017-10-26T17:18:12.894Z,65.03
2017-10-26T17:20:40.174Z,65.11
2017-10-26T17:23:06.544Z,65.01
2017-10-26T17:25:33.075Z,64.95
2017-10-26T17:27:59.514Z,64.93
2017-10-26T17:30:25.864Z,65.14
2017-10-26T17:32:52.430Z,64.92
2017-10-26T17:35:19.581Z,64.51
2017-10-26T17:37:46.812Z,64.72
2017-10-26T17:40:13.177Z,64.61
2017-10-26T17:42:39.722Z,64.52
2017-10-26T17:45:06.274Z,64.54
2017-10-26T17:47:32.751Z,64.41
2017-10-26T17:49:59.151Z,64.42
2017-10-26T17:52:25.551Z,64.38
2017-10-26T17:54:52.054Z,64.43
2017-10-26T17:57:20.392Z,64.24
2017-10-26T17:59:47.057Z,64.10
2017-10-26T18:02:13.567Z,64.29
2017-10-26T18:04:39.981Z,64.58
2017-10-26T18:07:06.404Z,64.45
2017-10-26T18:09:33.690Z,64.50
2017-10-26T18:12:00.018Z,64.50
2017-10-26T18:14:26.499Z,64.76
2017-10-26T18:16:53.660Z,64.64
2017-10-26T18:19:20.739Z,64.91
2017-10-26T18:21:47.194Z,64.46
2017-10-26T18:24:13.588Z,64.93
2017-10-26T18:26:39.951Z,64.80
2017-10-26T18:29:06.399Z,64.55
2017-10-26T18:31:33.957Z,63.96
2017-10-26T18:34:00.329Z,64.02
2017-10-26T18:36:27.551Z,63.92
2017-10-26T18:38:54.026Z,63.82
2017-10-26T18:41:20.398Z,63.76
2017-10-26T18:43:46.867Z,64.30
2017-10-26T18:46:13.261Z,64.25
2017-10-26T18:48:39.685Z,64.14
2017-10-26T18:51:06.060Z,64.18
2017-10-26T18:53:32.539Z,64.23
2017-10-26T18:56:00.088Z,63.85
2017-10-26T18:58:26.617Z,63.71
2017-10-26T19:00:55.912Z,63.65
2017-10-26T19:03:23.014Z,63.83
2017-10-26T19:05:49.444Z,63.69
2017-10-26T19:08:15.841Z,63.74
2017-10-26T19:10:42.208Z,63.68
2017-10-26T19:13:08.804Z,63.96
2017-10-26T19:15:36.087Z,63.87
2017-10-26T19:18:02.528Z,63.76
2017-10-26T19:20:28.939Z,63.55
2017-10-26T19:22:56.253Z,63.37
2017-10-26T19:25:22.859Z,63.18
2017-10-26T19:27:49.905Z,63.05
2017-10-26T19:30:16.254Z,63.35
2017-10-26T19:32:42.690Z,63.70
2017-10-26T19:35:09.196Z,63.74
2017-10-26T19:37:35.684Z,63.66
2017-10-26T19:40:02.828Z,63.67
2017-10-26T19:42:29.221Z,63.49
2017-10-26T19:44:55.579Z,63.56
2017-10-26T19:47:22.027Z,63.26
2017-10-26T19:49:48.455Z,63.78
2017-10-26T19:52:14.940Z,63.63
2017-10-26T19:54:42.447Z,63.78
2017-10-26T19:57:08.836Z,63.49
2017-10-26T19:59:35.630Z,63.36
2017-10-26T20:02:01.978Z,63.57
2017-10-26T20:04:28.313Z,63.41
2017-10-26T20:06:55.477Z,63.34
2017-10-26T20:09:22.487Z,63.22
2017-10-26T20:11:48.837Z,63.16
2017-10-26T20:14:15.256Z,63.33
2017-10-26T20:16:41.627Z,63.34
2017-10-26T20:19:08.227Z,63.03
2017-10-26T20:21:34.649Z,62.89
2017-10-26T20:24:01.128Z,62.41
2017-10-26T20:26:27.511Z,62.44
2017-10-26T20:28:53.954Z,62.64
2017-10-26T20:31:20.342Z,63.02
2017-10-26T20:33:46.900Z,62.55
2017-10-26T20:36:14.282Z,62.28
2017-10-26T20:38:41.604Z,62.11
2017-10-26T20:41:08.518Z,62.24
2017-10-26T20:43:35.156Z,61.74
2017-10-26T20:46:01.603Z,62.10
2017-10-26T20:48:28.099Z,62.90
2017-10-26T20:51:01.397Z,62.93
2017-10-26T20:53:35.578Z,62.95
2017-10-26T20:56:08.250Z,63.18
2017-10-26T20:58:40.759Z,63.32
2017-10-26T21:01:13.681Z,63.05
2017-10-26T21:03:46.379Z,62.94
2017-10-26T21:06:15.773Z,62.96
2017-10-26T21:08:48.470Z,63.27
2017-10-26T21:14:27.794Z,63.80
2017-10-26T21:16:54.123Z,63.76
2017-10-26T21:19:20.466Z,63.37
2017-10-26T21:21:46.871Z,63.70
2017-10-26T21:24:14.078Z,63.83
2017-10-26T21:26:40.526Z,63.64
2017-10-26T21:29:06.922Z,64.11
2017-10-26T21:31:33.310Z,64.06
2017-10-26T21:33:59.925Z,64.12
2017-10-26T21:36:26.963Z,64.31
2017-10-26T21:38:53.394Z,64.71
2017-10-26T21:41:19.937Z,64.85
2017-10-26T21:43:46.440Z,65.27
2017-10-26T21:46:13.240Z,65.94
2017-10-26T21:48:39.671Z,66.69
2017-10-26T21:51:06.359Z,67.23
2017-10-26T21:53:33.091Z,68.45
2017-10-26T21:55:59.481Z,67.89
2017-10-26T21:58:25.926Z,67.93
2017-10-26T22:00:52.475Z,67.40
2017-10-26T22:03:18.990Z,67.96
2017-10-26T22:05:45.398Z,67.86
2017-10-26T22:08:11.762Z,68.14
2017-10-26T22:13:11.751Z,68.57
2017-10-26T22:15:38.119Z,69.06
2017-10-26T22:18:04.431Z,69.69
2017-10-26T22:20:30.784Z,69.43
2017-10-26T22:22:57.173Z,69.67
2017-10-26T22:25:23.527Z,69.15
2017-10-26T22:27:49.960Z,69.10
2017-10-26T22:30:16.554Z,69.26
2017-10-26T22:32:42.991Z,69.15
2017-10-26T22:35:09.484Z,69.15
2017-10-26T22:37:35.926Z,69.08
2017-10-26T22:40:02.412Z,69.19
2017-10-26T22:42:29.082Z,68.92
2017-10-26T22:44:55.623Z,68.61
2017-10-26T22:47:22.024Z,68.83
2017-10-26T22:49:48.752Z,68.84
2017-10-26T22:52:15.336Z,68.78
2017-10-26T22:54:41.900Z,69.11
2017-10-26T22:57:08.243Z,68.77
2017-10-26T22:59:35.701Z,67.95
2017-10-26T23:02:02.251Z,67.90
2017-10-26T23:04:28.618Z,67.92
2017-10-26T23:06:55.022Z,68.27
2017-10-26T23:09:21.449Z,67.75
2017-10-26T23:11:47.887Z,67.90
2017-10-26T23:14:14.353Z,67.68
2017-10-26T23:16:40.762Z,67.58
2017-10-26T23:19:07.371Z,68.07
2017-10-26T23:21:33.959Z,68.29
2017-10-26T23:24:00.454Z,67.95
2017-10-26T23:26:26.853Z,68.55
2017-10-26T23:28:53.232Z,68.44
2017-10-26T23:31:19.587Z,68.23
2017-10-26T23:33:46.046Z,68.24
2017-10-26T23:36:12.386Z,68.21
2017-10-26T23:38:38.819Z,68.27
2017-10-26T23:41:06.247Z,67.89
2017-10-26T23:43:32.946Z,68.38
2017-10-26T23:45:59.783Z,68.15
2017-10-26T23:48:26.960Z,68.15
2017-10-26T23:50:53.406Z,68.52
2017-10-26T23:53:19.812Z,68.40
2017-10-26T23:55:46.148Z,68.33
2017-10-26T23:58:12.482Z,68.23
